Bloomfield, New Mexico
Current Conditions -  °F | °C
As of 12:53 PM on Saturday 20 Dec 2014 (Local Time) from KFMN Reporting Station
Clear Clear  
Wind Chill: 34°   Ceiling: Unl
Heat Index: 38°   Visibility: 10mi
Dew Point: 26°   Wind: 5mph
Humidity: 62%   Direction: 240°WSW
Pressure: 30.13"   Gusts: NA
Location:  36.71°N, 107.98°W
Report Text: KFMN 201953Z 24004KT 10SM CLR 03/M03 A3013 RMK AO2 SLP224 T00331033
Loading
Personal Weather Stations






























Interactive Weather Map New forecast layout! Learn more

10-Day Weather Forecast

Advertisements
Track Severe Weather on mobile